Time;durP1;ratioP1;P1;durP2;ratioP2;P2;SDS_P1;SDS_P2;PMS_P1;PMS_P2;Temp;Humidity;BMP_temperature;BMP_pressure;BME280_temperature;BME280_humidity;BME280_pressure;Samples;Min_cycle;Max_cycle;Signal;HPM_P1;HPM_P2
2022/04/05 00:03:18;;;;;;;;;;;-1.90;99.90;212.10;228463.00;;;;3;75026947;78028922;-65
2022/04/05 00:07:39;;;;;;;;;;;-1.90;99.90;212.10;228463.00;;;;3;75025393;84029713;-64
2022/04/05 00:12:03;;;;;;;;;;;-1.80;99.90;212.10;228463.00;;;;3;82528071;82528710;-65
2022/04/05 00:16:30;;;;;;;;;;;-1.60;99.90;212.10;228463.00;;;;3;78027574;82529261;-65
2022/04/05 00:20:49;;;;;;;;;;;-1.50;99.90;212.10;228463.00;;;;3;75026091;78025156;-65
2022/04/05 00:25:08;;;;;;;;;;;-1.40;99.90;212.10;228463.00;;;;3;75026374;82527341;-66
2022/04/05 00:29:32;;;;;;;;;;;-1.40;99.90;212.10;228463.00;;;;3;82526861;82529229;-65
2022/04/05 00:33:58;;;;;;;;;;;-1.30;99.90;212.10;228463.00;;;;3;78027694;82527690;-64
2022/04/05 00:38:18;;;;;;;;;;;-1.30;99.90;212.10;228463.00;;;;3;75027438;78027297;-64
2022/04/05 00:42:37;;;;;;;;;;;-1.30;99.90;212.10;228463.00;;;;3;75026484;82526932;-65
2022/04/05 00:47:24;;;;;;;;;;;-1.30;99.90;212.10;228463.00;;;;3;84029491;84030650;-60
2022/04/05 00:51:51;;;;;;;;;;;-1.20;99.90;212.10;228463.00;;;;3;78026857;82528216;-65
2022/04/05 00:56:10;;;;;;;;;;;-1.20;99.90;212.10;228463.00;;;;3;75026569;78025795;-64
2022/04/05 01:00:31;;;;;;;;;;;-1.20;99.90;212.10;228463.00;;;;3;75025198;82527435;-66
2022/04/05 01:05:14;;;;;;;;;;;-1.10;99.90;212.10;228463.00;;;;3;82527067;82527884;-65
2022/04/05 01:09:42;;;;;;;;;;;-1.10;99.90;212.10;228463.00;;;;3;78028408;82529770;-65
2022/04/05 01:14:02;;;;;;;;;;;-1.10;99.90;212.10;228463.00;;;;3;75026610;78028172;-65
2022/04/05 01:18:21;;;;;;;;;;;-1.10;99.90;212.10;228463.00;;;;3;75025903;82527539;-65
2022/04/05 01:23:11;;;;;;;;;;;-1.10;99.90;212.10;228463.00;;;;3;82526063;82528685;-60
2022/04/05 01:27:38;;;;;;;;;;;-1.10;99.90;212.10;228463.00;;;;3;78028750;82526245;-58
2022/04/05 01:32:01;;;;;;;;;;;-1.10;99.90;212.10;228463.00;;;;3;75024874;78029011;-59
2022/04/05 01:36:25;;;;;;;;;;;-1.10;99.90;212.10;228463.00;;;;3;75025550;84029454;-59
2022/04/05 01:40:50;;;;;;;;;;;-1.10;99.90;212.10;228463.00;;;;3;82526489;82527437;-57
2022/04/05 01:45:17;;;;;;;;;;;-1.10;99.90;212.10;228463.00;;;;3;78027672;82528689;-58
2022/04/05 01:49:40;;;;;;;;;;;-1.10;99.90;212.10;228463.00;;;;3;75026012;78027954;-59
2022/04/05 01:54:05;;;;;;;;;;;-1.10;99.90;212.10;228463.00;;;;3;75026942;82526387;-58
2022/04/05 01:58:28;;;;;;;;;;;-1.00;99.90;212.10;228463.00;;;;3;82526529;82529165;-58
2022/04/05 02:02:55;;;;;;;;;;;-1.10;99.90;212.10;228463.00;;;;3;78027279;82530599;-59
2022/04/05 02:07:15;;;;;;;;;;;-1.20;99.90;212.10;228463.00;;;;3;75024720;78030066;-59
2022/04/05 02:11:35;;;;;;;;;;;-1.40;99.90;212.10;228463.00;;;;3;75024204;82529643;-60
2022/04/05 02:16:10;;;;;;;;;;;-1.50;99.90;212.10;228463.00;;;;3;84027165;84027465;-60
2022/04/05 02:20:38;;;;;;;;;;;-1.70;99.90;212.10;228463.00;;;;3;78028038;82529271;-59
2022/04/05 02:24:57;;;;;;;;;;;-1.80;99.90;212.10;228463.00;;;;3;75024452;78028087;-59
2022/04/05 02:29:19;;;;;;;;;;;-2.00;99.90;212.10;228463.00;;;;3;75025935;82527112;-59
2022/04/05 02:33:46;;;;;;;;;;;-2.00;99.90;212.10;228463.00;;;;3;82525602;82529279;-59
2022/04/05 02:38:22;;;;;;;;;;;-2.10;99.90;212.10;228463.00;;;;3;78027890;82529138;-57
2022/04/05 02:42:41;;;;;;;;;;;-2.20;99.90;212.10;228463.00;;;;3;75026825;78026312;-58
2022/04/05 02:47:04;;;;;;;;;;;-2.20;99.90;212.10;228463.00;;;;3;75024569;82527968;-59
2022/04/05 02:51:33;;;;;;;;;;;-2.20;99.90;212.10;228463.00;;;;3;82524941;82529824;-58
2022/04/05 02:56:04;;;;;;;;;;;-2.20;99.90;212.10;228463.00;;;;3;78027728;82528384;-58
2022/04/05 03:00:28;;;;;;;;;;;-2.20;99.90;212.10;228463.00;;;;3;75024511;78027737;-58
2022/04/05 03:04:48;;;;;;;;;;;-2.20;99.90;212.10;228463.00;;;;3;75024229;84027156;-58
2022/04/05 03:09:14;;;;;;;;;;;-2.20;99.90;212.10;228463.00;;;;3;82527025;82529155;-59
2022/04/05 03:13:43;;;;;;;;;;;-2.10;99.90;212.10;228463.00;;;;3;78026606;82527458;-54
2022/04/05 03:18:07;;;;;;;;;;;-2.10;99.90;212.10;228463.00;;;;3;75025100;78026792;-55
2022/04/05 03:22:27;;;;;;;;;;;-2.00;99.90;212.10;228463.00;;;;3;75026896;82529021;-54
2022/04/05 03:26:50;;;;;;;;;;;-1.90;99.90;212.10;228463.00;;;;3;82528130;82528231;-56
2022/04/05 03:31:17;;;;;;;;;;;-1.70;99.90;212.10;228463.00;;;;3;78027663;82528873;-60
2022/04/05 03:35:40;;;;;;;;;;;-1.30;99.90;212.10;228463.00;;;;3;75026011;78026356;-61
2022/04/05 03:40:00;;;;;;;;;;;-0.70;99.90;212.10;228463.00;;;;3;75025729;82528779;-56
2022/04/05 03:44:27;;;;;;;;;;;-0.80;99.90;212.10;228463.00;;;;3;84027493;84027765;-54
2022/04/05 03:48:54;;;;;;;;;;;-0.80;99.90;212.10;228463.00;;;;3;78028061;82527989;-56
2022/04/05 03:53:14;;;;;;;;;;;-0.70;99.90;212.10;228463.00;;;;3;75027284;78027075;-54
2022/04/05 03:57:35;;;;;;;;;;;-0.50;99.90;212.10;228463.00;;;;3;75026234;82529117;-56
2022/04/05 04:01:59;;;;;;;;;;;-0.40;99.90;212.10;228463.00;;;;3;82527557;82530095;-56
2022/04/05 04:06:26;;;;;;;;;;;-0.30;99.90;212.10;228463.00;;;;3;78026474;82527304;-54
2022/04/05 04:10:48;;;;;;;;;;;-0.10;99.90;212.10;228463.00;;;;3;75025692;78028190;-55
2022/04/05 04:15:10;;;;;;;;;;;0.00;99.90;212.10;228463.00;;;;3;75027137;82528090;-51
2022/04/05 04:19:34;;;;;;;;;;;0.50;99.90;212.10;228463.00;;;;3;82529012;82531385;-56
2022/04/05 04:24:02;;;;;;;;;;;0.80;99.90;212.10;228463.00;;;;3;78026973;82528664;-55
2022/04/05 04:28:23;;;;;;;;;;;1.30;99.90;212.10;228463.00;;;;3;75026189;78027083;-55
2022/04/05 04:32:44;;;;;;;;;;;2.00;99.90;212.10;228463.00;;;;3;75025435;84030261;-55
2022/04/05 04:37:08;;;;;;;;;;;2.70;99.90;212.10;228463.00;;;;3;82527516;82530086;-56
2022/04/05 04:41:34;;;;;;;;;;;2.50;99.90;212.10;228463.00;;;;3;78026133;82528946;-56
2022/04/05 04:45:54;;;;;;;;;;;2.20;99.90;212.10;228463.00;;;;3;75026203;78025509;-54
2022/04/05 04:50:13;;;;;;;;;;;1.60;99.90;212.10;228463.00;;;;3;75025872;82528219;-56
2022/04/05 04:54:37;;;;;;;;;;;2.20;99.90;212.10;228463.00;;;;3;82527529;82527763;-56
2022/04/05 04:59:03;;;;;;;;;;;2.60;99.90;212.10;228463.00;;;;3;78028927;82528130;-57
2022/04/05 05:03:23;;;;;;;;;;;2.50;99.90;212.10;228463.00;;;;3;75024314;78027341;-52
2022/04/05 05:07:44;;;;;;;;;;;2.10;99.90;212.10;228463.00;;;;3;75024708;82529437;-59
2022/04/05 05:12:11;;;;;;;;;;;1.70;99.90;212.10;228463.00;;;;3;84027255;84030606;-54
2022/04/05 05:16:37;;;;;;;;;;;1.40;99.90;212.10;228463.00;;;;3;78028426;82530259;-55
2022/04/05 05:20:57;;;;;;;;;;;1.30;99.90;212.10;228463.00;;;;3;75025896;78029157;-55
2022/04/05 05:25:16;;;;;;;;;;;1.50;99.90;212.10;228463.00;;;;3;75025186;82528866;-55
2022/04/05 05:29:39;;;;;;;;;;;1.40;99.90;212.10;228463.00;;;;3;82527882;82529451;-56
2022/04/05 05:34:06;;;;;;;;;;;1.80;99.90;212.10;228463.00;;;;3;78026393;82528016;-55
2022/04/05 05:38:26;;;;;;;;;;;2.00;99.90;212.10;228463.00;;;;3;75026466;78025571;-55
2022/04/05 05:42:51;;;;;;;;;;;2.40;99.90;212.10;228463.00;;;;3;75024468;82527820;-58
2022/04/05 05:47:14;;;;;;;;;;;2.60;99.90;212.10;228463.00;;;;3;82524915;82528328;-55
2022/04/05 05:51:41;;;;;;;;;;;2.50;99.90;212.10;228463.00;;;;3;78026667;82528206;-55
2022/04/05 05:56:02;;;;;;;;;;;2.60;99.90;212.10;228463.00;;;;3;75026126;78027133;-58
2022/04/05 06:00:23;;;;;;;;;;;2.90;99.90;212.10;228463.00;;;;3;75025563;84027722;-58
2022/04/05 06:04:47;;;;;;;;;;;3.00;99.90;212.10;228463.00;;;;3;82526735;82528486;-56
2022/04/05 06:09:14;;;;;;;;;;;3.00;99.90;212.10;228463.00;;;;3;78028205;82526427;-55
2022/04/05 06:13:34;;;;;;;;;;;3.00;99.90;212.10;228463.00;;;;3;75025330;78028606;-58
2022/04/05 06:17:53;;;;;;;;;;;3.10;99.90;212.10;228463.00;;;;3;75024926;82526920;-57
2022/04/05 06:22:16;;;;;;;;;;;3.40;99.90;212.10;228463.00;;;;3;82526996;82529911;-57
2022/04/05 06:26:43;;;;;;;;;;;3.60;99.90;212.10;228463.00;;;;3;78026438;82529174;-56
2022/04/05 06:31:02;;;;;;;;;;;3.90;99.90;212.10;228463.00;;;;3;75026422;78026446;-57
2022/04/05 06:35:21;;;;;;;;;;;4.00;99.90;212.10;228463.00;;;;3;75026365;82528847;-57
2022/04/05 06:39:48;;;;;;;;;;;4.30;99.90;212.10;228463.00;;;;3;84028787;84029301;-55
2022/04/05 06:44:15;;;;;;;;;;;4.40;99.90;212.10;228463.00;;;;3;78025533;82529176;-55
2022/04/05 06:48:34;;;;;;;;;;;4.30;99.90;212.10;228463.00;;;;3;75026133;78026378;-56
2022/04/05 06:52:54;;;;;;;;;;;4.60;99.90;212.10;228463.00;;;;3;75024615;82526634;-57
2022/04/05 06:57:18;;;;;;;;;;;4.60;99.90;212.10;228463.00;;;;3;82527208;82527708;-57
2022/04/05 07:01:44;;;;;;;;;;;4.60;99.90;212.10;228463.00;;;;3;78027319;82529480;-57
2022/04/05 07:06:03;;;;;;;;;;;4.80;99.90;212.10;228463.00;;;;3;75025402;78027116;-54
2022/04/05 07:10:23;;;;;;;;;;;4.90;99.90;212.10;228463.00;;;;3;75023850;82527660;-56
2022/04/05 07:14:47;;;;;;;;;;;5.10;99.90;212.10;228463.00;;;;3;82527813;82527911;-56
2022/04/05 07:19:14;;;;;;;;;;;5.40;99.90;212.10;228463.00;;;;3;78026921;82528635;-55
2022/04/05 07:23:36;;;;;;;;;;;5.60;99.90;212.10;228463.00;;;;3;75025218;78026257;-55
2022/04/05 07:27:56;;;;;;;;;;;5.30;99.90;212.10;228463.00;;;;3;75024186;84029285;-53
2022/04/05 07:32:20;;;;;;;;;;;5.50;99.30;212.10;228463.00;;;;3;82526155;82528675;-56
2022/04/05 07:36:47;;;;;;;;;;;5.40;99.90;212.10;228463.00;;;;3;78027256;82528687;-56
2022/04/05 07:41:06;;;;;;;;;;;5.50;99.50;212.10;228463.00;;;;3;75027128;78027014;-54
2022/04/05 07:45:25;;;;;;;;;;;5.40;98.90;212.10;228463.00;;;;3;75024521;82526953;-56
2022/04/05 07:49:49;;;;;;;;;;;5.50;98.80;212.10;228463.00;;;;3;82526882;82527518;-56
2022/04/05 07:54:15;;;;;;;;;;;5.50;98.70;212.10;228463.00;;;;3;78028654;82529306;-57
2022/04/05 07:58:35;;;;;;;;;;;5.50;98.50;212.10;228463.00;;;;3;75023184;78027664;-54
2022/04/05 08:02:54;;;;;;;;;;;5.50;98.50;212.10;228463.00;;;;3;75025131;82526636;-56
2022/04/05 08:07:21;;;;;;;;;;;5.70;97.90;212.10;228463.00;;;;3;84027492;84030246;-56
2022/04/05 08:11:47;;;;;;;;;;;5.90;98.30;212.10;228463.00;;;;3;78026707;82527199;-56
2022/04/05 08:16:07;;;;;;;;;;;6.10;97.60;212.10;228463.00;;;;3;75025064;78027903;-58
2022/04/05 08:20:26;;;;;;;;;;;6.20;97.60;212.10;228463.00;;;;3;75024906;82526886;-55
2022/04/05 08:24:50;;;;;;;;;;;6.30;96.90;212.10;228463.00;;;;3;82528094;82529144;-55
2022/04/05 08:29:16;;;;;;;;;;;6.50;96.30;212.10;228463.00;;;;3;78026369;82527576;-53
2022/04/05 08:33:35;;;;;;;;;;;6.90;95.60;212.10;228463.00;;;;3;75026507;78025488;-55
2022/04/05 08:37:55;;;;;;;;;;;6.70;95.30;212.10;228463.00;;;;3;75024794;82529822;-56
2022/04/05 08:42:18;;;;;;;;;;;6.90;95.20;212.10;228463.00;;;;3;82526629;82528454;-57
2022/04/05 08:46:45;;;;;;;;;;;7.30;94.80;212.10;228463.00;;;;3;78026520;82528107;-55
2022/04/05 08:51:06;;;;;;;;;;;7.30;94.20;212.10;228463.00;;;;3;75024384;78027563;-55
2022/04/05 08:55:28;;;;;;;;;;;7.30;92.60;212.10;228463.00;;;;3;75024919;84027622;-55
2022/04/05 08:59:53;;;;;;;;;;;6.90;92.20;212.10;228463.00;;;;3;82525965;82528084;-58
2022/04/05 09:05:47;;;;;;;;;;;6.90;91.40;212.10;228463.00;;;;3;78028929;82529353;-55
2022/04/05 09:10:06;;;;;;;;;;;6.70;91.10;212.10;228463.00;;;;3;75026243;78026454;-56
2022/04/05 09:14:27;;;;;;;;;;;6.60;91.30;212.10;228463.00;;;;3;75030778;82531073;-61
2022/04/05 09:19:14;;;;;;;;;;;6.70;92.30;212.10;228463.00;;;;3;82529608;82529950;-63
2022/04/05 09:24:05;;;;;;;;;;;6.90;90.50;212.10;228463.00;;;;3;78029975;82526855;-62
2022/04/05 09:28:28;;;;;;;;;;;6.90;89.40;212.10;228463.00;;;;3;75025596;78029159;-60
2022/04/05 09:32:57;;;;;;;;;;;6.80;91.20;212.10;228463.00;;;;3;75026530;82531161;-61
2022/04/05 09:37:29;;;;;;;;;;;7.00;90.30;212.10;228463.00;;;;3;84027398;84031989;-60
2022/04/05 09:41:56;;;;;;;;;;;6.90;89.60;212.10;228463.00;;;;3;78026016;82529708;-62
2022/04/05 09:46:22;;;;;;;;;;;7.00;89.70;212.10;228463.00;;;;3;75025161;78027939;-61
2022/04/05 09:50:59;;;;;;;;;;;7.30;89.60;212.10;228463.00;;;;3;75025933;82529694;-62
2022/04/05 09:55:32;;;;;;;;;;;7.20;88.90;212.10;228463.00;;;;3;82527186;82528762;-62
2022/04/05 10:00:08;;;;;;;;;;;7.60;89.60;212.10;228463.00;;;;3;78026631;82528455;-61
2022/04/05 10:04:36;;;;;;;;;;;7.50;90.20;212.10;228463.00;;;;3;75025602;78026952;-61
2022/04/05 10:08:59;;;;;;;;;;;7.30;89.80;212.10;228463.00;;;;3;75025833;82526237;-61
2022/04/05 10:13:22;;;;;;;;;;;7.20;90.20;212.10;228463.00;;;;3;82527204;82530330;-61
2022/04/05 10:17:50;;;;;;;;;;;7.10;90.30;212.10;228463.00;;;;3;78030702;82527638;-60
2022/04/05 10:22:12;;;;;;;;;;;7.10;88.30;212.10;228463.00;;;;3;75026173;78027133;-60
2022/04/05 10:26:34;;;;;;;;;;;7.00;89.90;212.10;228463.00;;;;3;75025779;84030820;-60
2022/04/05 10:31:10;;;;;;;;;;;7.00;91.00;212.10;228463.00;;;;3;82527412;82530497;-60
2022/04/05 10:35:50;;;;;;;;;;;7.00;89.70;212.10;228463.00;;;;3;78027544;82526969;-61
2022/04/05 10:40:30;;;;;;;;;;;7.20;90.00;212.10;228463.00;;;;3;75027198;78029482;-60
2022/04/05 10:45:08;;;;;;;;;;;6.90;92.40;212.10;228463.00;;;;3;75025940;82527137;-62
2022/04/05 10:49:39;;;;;;;;;;;7.00;90.20;212.10;228463.00;;;;3;82525613;82528958;-65
2022/04/05 10:54:18;;;;;;;;;;;6.90;91.90;212.10;228463.00;;;;3;78028444;82527910;-65
2022/04/05 10:58:47;;;;;;;;;;;7.00;88.70;212.10;228463.00;;;;3;75025611;78027469;-65
2022/04/05 11:03:06;;;;;;;;;;;6.80;90.00;212.10;228463.00;;;;3;75024219;82529232;-61
2022/04/05 11:07:52;;;;;;;;;;;6.80;90.90;212.10;228463.00;;;;3;84028700;84030293;-64
2022/04/05 11:12:20;;;;;;;;;;;6.50;90.70;212.10;228463.00;;;;3;78027818;82529358;-64
2022/04/05 11:16:40;;;;;;;;;;;6.50;90.00;212.10;228463.00;;;;3;75026504;78027628;-64
2022/04/05 11:21:00;;;;;;;;;;;6.50;91.10;212.10;228463.00;;;;3;75024680;82528476;-65
2022/04/05 11:25:28;;;;;;;;;;;6.60;90.50;212.10;228463.00;;;;3;82528421;82529586;-64
2022/04/05 11:30:15;;;;;;;;;;;6.60;92.20;212.10;228463.00;;;;3;78026677;82528420;-65
2022/04/05 11:34:52;;;;;;;;;;;6.60;90.70;212.10;228463.00;;;;3;75028394;78026302;-64
2022/04/05 11:39:13;;;;;;;;;;;6.50;90.00;212.10;228463.00;;;;3;75025883;82526645;-63
2022/04/05 11:43:54;;;;;;;;;;;6.30;93.20;212.10;228463.00;;;;3;82527442;82527565;-64
2022/04/05 11:48:22;;;;;;;;;;;6.30;93.30;212.10;228463.00;;;;3;78026219;82528643;-64
2022/04/05 11:52:50;;;;;;;;;;;6.10;93.00;212.10;228463.00;;;;3;75024902;78028525;-64
2022/04/05 11:57:10;;;;;;;;;;;5.90;94.30;212.10;228463.00;;;;3;75023747;84027121;-65
2022/04/05 12:01:36;;;;;;;;;;;5.70;94.70;212.10;228463.00;;;;3;82525987;82528576;-63
2022/04/05 12:06:04;;;;;;;;;;;5.40;94.90;212.10;228463.00;;;;3;78027773;82526611;-63
2022/04/05 12:10:23;;;;;;;;;;;5.30;95.40;212.10;228463.00;;;;3;75025520;78027089;-63
2022/04/05 12:14:46;;;;;;;;;;;5.40;95.10;212.10;228463.00;;;;3;75028493;82527106;-64
2022/04/05 12:19:10;;;;;;;;;;;5.60;95.30;212.10;228463.00;;;;3;82528033;82529217;-64
2022/04/05 12:23:42;;;;;;;;;;;5.90;94.30;212.10;228463.00;;;;3;78030390;82529963;-64
2022/04/05 12:28:02;;;;;;;;;;;5.70;95.30;212.10;228463.00;;;;3;75027476;78027641;-64
2022/04/05 12:32:35;;;;;;;;;;;5.80;94.80;212.10;228463.00;;;;3;75027628;82529552;-64
2022/04/05 12:37:05;;;;;;;;;;;5.70;95.00;212.10;228463.00;;;;3;84027294;84027835;-64
2022/04/05 12:41:39;;;;;;;;;;;5.60;95.60;212.10;228463.00;;;;3;78026116;82532263;-64
2022/04/05 12:46:07;;;;;;;;;;;5.30;96.40;212.10;228463.00;;;;3;75025739;78025740;-64
2022/04/05 12:50:27;;;;;;;;;;;5.30;97.20;212.10;228463.00;;;;3;75026253;82529784;-66
2022/04/05 12:54:56;;;;;;;;;;;5.30;96.40;212.10;228463.00;;;;3;82526532;82529139;-65
2022/04/05 12:59:26;;;;;;;;;;;5.20;96.80;212.10;228463.00;;;;3;78026620;82528460;-65
2022/04/05 13:03:58;;;;;;;;;;;5.10;98.10;212.10;228463.00;;;;3;75024763;78027600;-65
2022/04/05 13:08:27;;;;;;;;;;;5.20;98.20;212.10;228463.00;;;;3;75024414;82527773;-63
2022/04/05 13:13:20;;;;;;;;;;;5.20;97.90;212.10;228463.00;;;;3;82524703;82527579;-64
2022/04/05 13:18:03;;;;;;;;;;;5.00;98.00;212.10;228463.00;;;;3;78028014;82528386;-64
2022/04/05 13:22:24;;;;;;;;;;;5.00;98.10;212.10;228463.00;;;;3;75027586;78026313;-63
2022/04/05 13:26:50;;;;;;;;;;;5.00;98.30;212.10;228463.00;;;;3;75024663;84027462;-64
2022/04/05 13:31:14;;;;;;;;;;;5.10;98.20;212.10;228463.00;;;;3;82527513;82530113;-63
2022/04/05 13:35:41;;;;;;;;;;;5.20;98.40;212.10;228463.00;;;;3;78028692;82527092;-64
2022/04/05 13:40:00;;;;;;;;;;;5.00;98.50;212.10;228463.00;;;;3;75025438;78027098;-64
2022/04/05 13:44:23;;;;;;;;;;;5.20;98.20;212.10;228463.00;;;;3;75025606;82527724;-63
2022/04/05 13:48:47;;;;;;;;;;;5.30;98.40;212.10;228463.00;;;;3;82528815;82528936;-64
2022/04/05 13:53:14;;;;;;;;;;;5.20;98.70;212.10;228463.00;;;;3;78026710;82528836;-65
2022/04/05 13:57:33;;;;;;;;;;;5.20;98.20;212.10;228463.00;;;;3;75027288;78027121;-65
2022/04/05 14:01:52;;;;;;;;;;;5.20;98.10;212.10;228463.00;;;;3;75025396;82527632;-65
2022/04/05 14:06:19;;;;;;;;;;;4.90;98.90;212.10;228463.00;;;;3;84027155;84028915;-64
2022/04/05 14:10:45;;;;;;;;;;;4.90;98.90;212.10;228463.00;;;;3;78025826;82530014;-65
2022/04/05 14:15:05;;;;;;;;;;;4.90;99.30;212.10;228463.00;;;;3;75026968;78027870;-64
2022/04/05 14:19:25;;;;;;;;;;;4.90;98.80;212.10;228463.00;;;;3;75023479;82528063;-65
2022/04/05 14:23:48;;;;;;;;;;;4.90;99.10;212.10;228463.00;;;;3;82525580;82527987;-65
2022/04/05 14:28:15;;;;;;;;;;;4.70;99.90;212.10;228463.00;;;;3;78027443;82526710;-65
2022/04/05 14:32:34;;;;;;;;;;;4.70;99.40;212.10;228463.00;;;;3;75026720;78027034;-65
2022/04/05 14:36:53;;;;;;;;;;;4.50;99.60;212.10;228463.00;;;;3;75024743;82527896;-64
2022/04/05 14:41:20;;;;;;;;;;;4.50;99.80;212.10;228463.00;;;;3;82525718;82527618;-65
2022/04/05 14:45:46;;;;;;;;;;;4.30;99.90;212.10;228463.00;;;;3;78028246;82528588;-65
2022/04/05 14:50:08;;;;;;;;;;;4.00;99.90;212.10;228463.00;;;;3;75024157;78026247;-64
2022/04/05 14:54:29;;;;;;;;;;;4.00;99.90;212.10;228463.00;;;;3;75025913;84028052;-65
2022/04/05 14:58:53;;;;;;;;;;;3.90;99.90;212.10;228463.00;;;;3;82525909;82528425;-64
2022/04/05 15:03:19;;;;;;;;;;;3.80;99.90;212.10;228463.00;;;;3;78026523;82527391;-65
2022/04/05 15:07:39;;;;;;;;;;;3.70;99.90;212.10;228463.00;;;;3;75026321;78025754;-64
2022/04/05 15:11:59;;;;;;;;;;;3.60;99.90;212.10;228463.00;;;;3;75025574;82526622;-64
2022/04/05 15:16:23;;;;;;;;;;;3.50;99.90;212.10;228463.00;;;;3;82527977;82528051;-65
2022/04/05 15:20:55;;;;;;;;;;;3.40;99.90;212.10;228463.00;;;;3;78026599;82528448;-67
2022/04/05 15:25:14;;;;;;;;;;;3.30;99.90;212.10;228463.00;;;;3;75022818;78028407;-64
2022/04/05 15:29:35;;;;;;;;;;;3.00;99.90;212.10;228463.00;;;;3;75024343;82528626;-62
2022/04/05 15:34:02;;;;;;;;;;;2.90;99.90;212.10;228463.00;;;;3;84028519;84029608;-62
2022/04/05 15:38:29;;;;;;;;;;;2.80;99.90;212.10;228463.00;;;;3;78026431;82528214;-63
2022/04/05 15:42:49;;;;;;;;;;;2.70;99.90;212.10;228463.00;;;;3;75026452;78028288;-61
2022/04/05 15:47:09;;;;;;;;;;;2.70;99.90;212.10;228463.00;;;;3;75024718;82528363;-55
2022/04/05 15:51:32;;;;;;;;;;;2.60;99.90;212.10;228463.00;;;;3;82527538;82530748;-58
2022/04/05 15:55:59;;;;;;;;;;;2.50;99.90;212.10;228463.00;;;;3;78026428;82528999;-57
2022/04/05 16:00:18;;;;;;;;;;;2.50;99.90;212.10;228463.00;;;;3;75028182;78029159;-58
2022/04/05 16:04:38;;;;;;;;;;;2.50;99.90;212.10;228463.00;;;;3;75025676;82526892;-58
2022/04/05 16:09:02;;;;;;;;;;;2.30;99.90;212.10;228463.00;;;;3;82527432;82528600;-61
2022/04/05 16:13:29;;;;;;;;;;;2.20;99.90;212.10;228463.00;;;;3;78028699;82528255;-62
2022/04/05 16:17:49;;;;;;;;;;;2.20;99.90;212.10;228463.00;;;;3;75030340;78028829;-61
2022/04/05 16:22:10;;;;;;;;;;;2.20;99.90;212.10;228463.00;;;;3;75027410;84031143;-67
2022/04/05 16:26:34;;;;;;;;;;;2.10;99.90;212.10;228463.00;;;;3;82528671;82528995;-62
2022/04/05 16:31:00;;;;;;;;;;;2.00;99.90;212.10;228463.00;;;;3;78029627;82530916;-63
2022/04/05 16:35:20;;;;;;;;;;;1.90;99.90;212.10;228463.00;;;;3;75025432;78027543;-64
2022/04/05 16:39:39;;;;;;;;;;;1.80;99.90;212.10;228463.00;;;;3;75027424;82526431;-63
2022/04/05 16:44:04;;;;;;;;;;;1.80;99.90;212.10;228463.00;;;;3;82527546;82528994;-63
2022/04/05 16:48:31;;;;;;;;;;;1.70;99.90;212.10;228463.00;;;;3;78028312;82527436;-64
2022/04/05 16:52:50;;;;;;;;;;;1.60;99.90;212.10;228463.00;;;;3;75024663;78028686;-64
2022/04/05 16:57:10;;;;;;;;;;;1.50;99.90;212.10;228463.00;;;;3;75025596;82529250;-65
2022/04/05 17:01:38;;;;;;;;;;;1.40;99.90;212.10;228463.00;;;;3;84028907;84030262;-65
2022/04/05 17:06:04;;;;;;;;;;;1.30;99.90;212.10;228463.00;;;;3;78026810;82530873;-66
2022/04/05 17:10:24;;;;;;;;;;;1.30;99.90;212.10;228463.00;;;;3;75025844;78027850;-63
2022/04/05 17:14:43;;;;;;;;;;;1.20;99.90;212.10;228463.00;;;;3;75026212;82528300;-64
2022/04/05 17:19:08;;;;;;;;;;;1.20;99.90;212.10;228463.00;;;;3;82526674;82529267;-65
2022/04/05 17:23:34;;;;;;;;;;;1.00;99.90;212.10;228463.00;;;;3;78026954;82528596;-63
2022/04/05 17:27:54;;;;;;;;;;;0.90;99.90;212.10;228463.00;;;;3;75025341;78026433;-58
2022/04/05 17:32:13;;;;;;;;;;;0.90;99.90;212.10;228463.00;;;;3;75025438;82527598;-61
2022/04/05 17:36:37;;;;;;;;;;;0.90;99.90;212.10;228463.00;;;;3;82526285;82527404;-62
2022/04/05 17:41:04;;;;;;;;;;;0.80;99.90;212.10;228463.00;;;;3;78029415;82528653;-62
2022/04/05 17:45:26;;;;;;;;;;;0.70;99.90;212.10;228463.00;;;;3;75024157;78026994;-66
2022/04/05 17:49:47;;;;;;;;;;;0.70;99.90;212.10;228463.00;;;;3;75024577;84026197;-66
2022/04/05 17:54:11;;;;;;;;;;;0.70;99.90;212.10;228463.00;;;;3;82526705;82529092;-67
2022/04/05 17:58:38;;;;;;;;;;;0.70;99.90;212.10;228463.00;;;;3;78029808;82527742;-67
2022/04/05 18:02:57;;;;;;;;;;;0.70;99.90;212.10;228463.00;;;;3;75024883;78028516;-69
2022/04/05 18:07:16;;;;;;;;;;;0.70;99.90;212.10;228463.00;;;;3;75025782;82525728;-66
2022/04/05 18:11:40;;;;;;;;;;;0.70;99.90;212.10;228463.00;;;;3;82527709;82527810;-67
2022/04/05 18:16:07;;;;;;;;;;;0.80;99.90;212.10;228463.00;;;;3;78028878;82529530;-63
2022/04/05 18:20:27;;;;;;;;;;;0.80;99.90;212.10;228463.00;;;;3;75024369;78026451;-63
2022/04/05 18:24:47;;;;;;;;;;;0.90;99.90;212.10;228463.00;;;;3;75025357;82526128;-62
2022/04/05 18:29:14;;;;;;;;;;;0.90;99.90;212.10;228463.00;;;;3;84028612;84029386;-63
2022/04/05 18:33:41;;;;;;;;;;;0.90;99.90;212.10;228463.00;;;;3;78026839;82527112;-63
2022/04/05 18:38:01;;;;;;;;;;;1.00;99.90;212.10;228463.00;;;;3;75026059;78029337;-64
2022/04/05 18:42:20;;;;;;;;;;;1.00;99.90;212.10;228463.00;;;;3;75024824;82525270;-63
2022/04/05 18:46:44;;;;;;;;;;;1.00;99.90;212.10;228463.00;;;;3;82528397;82529053;-62
2022/04/05 18:51:11;;;;;;;;;;;1.00;99.90;212.10;228463.00;;;;3;78029859;82530427;-59
2022/04/05 18:55:30;;;;;;;;;;;1.00;99.90;212.10;228463.00;;;;3;75025236;78028795;-60
2022/04/05 18:59:49;;;;;;;;;;;1.10;99.90;212.10;228463.00;;;;3;75026360;82532016;-58
2022/04/05 19:04:14;;;;;;;;;;;1.10;99.90;212.10;228463.00;;;;3;82526293;82527874;-57
2022/04/05 19:08:40;;;;;;;;;;;1.10;99.90;212.10;228463.00;;;;3;78025310;82528269;-55
2022/04/05 19:13:01;;;;;;;;;;;1.10;99.90;212.10;228463.00;;;;3;75026560;78026522;-56
2022/04/05 19:17:22;;;;;;;;;;;1.10;99.90;212.10;228463.00;;;;3;75026753;84027273;-59
2022/04/05 19:21:46;;;;;;;;;;;1.10;99.90;212.10;228463.00;;;;3;82527138;82527482;-60
2022/04/05 19:26:12;;;;;;;;;;;1.10;99.90;212.10;228463.00;;;;3;78028113;82528756;-59
2022/04/05 19:30:32;;;;;;;;;;;1.10;99.90;212.10;228463.00;;;;3;75025269;78027291;-59
2022/04/05 19:34:51;;;;;;;;;;;1.20;99.90;212.10;228463.00;;;;3;75024774;82528510;-57
2022/04/05 19:39:15;;;;;;;;;;;1.20;99.90;212.10;228463.00;;;;3;82526873;82527560;-59
2022/04/05 19:43:41;;;;;;;;;;;1.20;99.90;212.10;228463.00;;;;3;78026213;82529827;-58
2022/04/05 19:48:00;;;;;;;;;;;1.20;99.90;212.10;228463.00;;;;3;75024810;78026790;-58
2022/04/05 19:52:20;;;;;;;;;;;1.20;99.90;212.10;228463.00;;;;3;75025836;82527012;-59
2022/04/05 19:56:46;;;;;;;;;;;1.30;99.90;212.10;228463.00;;;;3;84028228;84028646;-58
2022/04/05 20:01:13;;;;;;;;;;;1.30;99.90;212.10;228463.00;;;;3;78028447;82529119;-59
2022/04/05 20:05:32;;;;;;;;;;;1.30;99.90;212.10;228463.00;;;;3;75025618;78025823;-58
2022/04/05 20:09:51;;;;;;;;;;;1.30;99.90;212.10;228463.00;;;;3;75025576;82528767;-58
2022/04/05 20:14:15;;;;;;;;;;;1.30;99.90;212.10;228463.00;;;;3;82527195;82528355;-60
2022/04/05 20:18:42;;;;;;;;;;;1.30;99.90;212.10;228463.00;;;;3;78027461;82527053;-58
2022/04/05 20:23:01;;;;;;;;;;;1.40;99.90;212.10;228463.00;;;;3;75029273;78027030;-59
2022/04/05 20:27:20;;;;;;;;;;;1.40;99.90;212.10;228463.00;;;;3;75023602;82527833;-59
2022/04/05 20:31:44;;;;;;;;;;;1.40;99.90;212.10;228463.00;;;;3;82526898;82529152;-60